Time;durP1;ratioP1;P1;durP2;ratioP2;P2;SDS_P1;SDS_P2;PMS_P1;PMS_P2;Temp;Humidity;BMP_temperature;BMP_pressure;BME280_temperature;BME280_humidity;BME280_pressure;Samples;Min_cycle;Max_cycle;Signal;HPM_P1;HPM_P2
2023/08/24 00:01:30;;;;;;;6.90;5.60;;;;;;;28.61;39.42;100468.79;104441;1289;69257;-88
2023/08/24 00:03:56;;;;;;;8.70;5.90;;;;;;;28.61;39.30;100472.21;104367;1285;67208;-88
2023/08/24 00:06:21;;;;;;;7.10;5.70;;;;;;;28.61;39.34;100471.07;104331;1285;69286;-88
2023/08/24 00:08:47;;;;;;;6.90;5.90;;;;;;;28.61;39.48;100470.20;104253;1287;69116;-88
2023/08/24 00:11:14;;;;;;;6.40;5.80;;;;;;;28.60;39.45;100474.11;104471;1287;69258;-88
2023/08/24 00:13:53;;;;;;;7.20;5.40;;;;;;;28.61;39.49;100474.45;104310;1285;69231;-88
2023/08/24 00:16:19;;;;;;;6.00;5.40;;;;;;;28.59;39.61;100468.64;104385;1290;69186;-88
2023/08/24 00:18:45;;;;;;;6.60;5.40;;;;;;;28.59;39.56;100468.03;104457;1285;69214;-88
2023/08/24 00:21:13;;;;;;;6.40;5.80;;;;;;;28.59;39.43;100472.27;104301;1289;69076;-88
2023/08/24 00:23:38;;;;;;;6.50;5.50;;;;;;;28.59;39.54;100472.85;104498;1285;69247;-88
2023/08/24 00:26:04;;;;;;;6.10;5.20;;;;;;;28.59;39.63;100478.27;104477;1291;70347;-88
2023/08/24 00:28:29;;;;;;;7.00;5.80;;;;;;;28.58;39.66;100479.08;104206;1286;69602;-88
2023/08/24 00:30:55;;;;;;;6.60;5.90;;;;;;;28.58;39.57;100477.17;104426;1288;67822;-88
2023/08/24 00:33:37;;;;;;;5.80;5.30;;;;;;;28.58;39.73;100470.39;104333;1286;69264;-93
2023/08/24 00:36:03;;;;;;;7.80;5.60;;;;;;;28.57;39.58;100462.96;104196;1285;69340;-88
2023/08/24 00:38:28;;;;;;;8.10;5.80;;;;;;;28.57;39.51;100464.27;104251;1287;69379;-88
2023/08/24 00:40:55;;;;;;;6.60;5.50;;;;;;;28.57;39.61;100470.52;104213;1285;69346;-88
2023/08/24 00:43:23;;;;;;;6.00;5.40;;;;;;;28.56;39.66;100474.89;104359;1285;69261;-88
2023/08/24 00:45:53;;;;;;;8.30;5.60;;;;;;;28.56;39.44;100472.16;104295;1285;69233;-88
2023/08/24 00:48:19;;;;;;;7.70;5.70;;;;;;;28.56;39.55;100472.41;104328;1290;69484;-88
2023/08/24 00:50:44;;;;;;;8.40;6.10;;;;;;;28.55;39.70;100475.77;104158;1286;69219;-88
2023/08/24 00:53:10;;;;;;;6.00;5.40;;;;;;;28.55;39.63;100477.06;104340;1286;69199;-88
2023/08/24 00:55:35;;;;;;;6.40;5.60;;;;;;;28.55;39.57;100475.91;104259;1285;69311;-88
2023/08/24 00:58:02;;;;;;;6.40;5.60;;;;;;;28.56;39.71;100473.27;104407;1286;69261;-88
2023/08/24 01:00:28;;;;;;;6.60;5.90;;;;;;;28.55;39.69;100473.79;104251;1285;69253;-89
2023/08/24 01:02:53;;;;;;;6.80;5.90;;;;;;;28.55;39.81;100471.92;104287;1288;69268;-88
2023/08/24 01:05:19;;;;;;;6.80;5.80;;;;;;;28.55;39.70;100477.59;104282;1285;69122;-88
2023/08/24 01:07:44;;;;;;;6.20;5.60;;;;;;;28.54;39.65;100476.67;104205;1285;69330;-88
2023/08/24 01:10:10;;;;;;;6.70;5.70;;;;;;;28.54;39.86;100477.50;104270;1292;67653;-88
2023/08/24 01:12:50;;;;;;;7.70;5.80;;;;;;;28.54;39.84;100478.50;104237;1289;69141;-88
2023/08/24 01:15:17;;;;;;;;;;;;;;;28.54;39.72;100481.45;104402;1286;69256;-89
2023/08/24 01:17:43;;;;;;;6.40;5.60;;;;;;;28.51;39.69;100478.52;104322;1288;69206;-87
2023/08/24 01:20:10;;;;;;;7.30;5.50;;;;;;;28.51;39.71;100470.67;104297;1286;69064;-87
2023/08/24 01:23:03;;;;;;;8.90;6.40;;;;;;;28.51;39.76;100464.30;104386;1285;69077;-87
2023/08/24 01:25:42;;;;;;;6.90;6.10;;;;;;;28.50;39.73;100459.66;104336;1285;73837;-88
2023/08/24 01:28:07;;;;;;;6.40;5.80;;;;;;;28.50;39.76;100458.52;104427;1286;69279;-87
2023/08/24 01:30:34;;;;;;;7.20;6.10;;;;;;;28.51;39.77;100457.43;104449;1285;69281;-88
2023/08/24 01:33:03;;;;;;;7.40;6.00;;;;;;;28.50;39.78;100460.39;104523;1286;69266;-87
2023/08/24 01:35:29;;;;;;;8.20;5.80;;;;;;;28.50;39.75;100462.62;104438;1288;69147;-88
2023/08/24 01:37:54;;;;;;;6.60;6.00;;;;;;;28.50;39.92;100467.36;104104;1285;69987;-87
2023/08/24 01:40:23;;;;;;;7.20;6.00;;;;;;;28.51;39.81;100468.23;104407;1288;69254;-87
2023/08/24 01:42:59;;;;;;;6.90;5.50;;;;;;;28.50;39.85;100467.07;104186;1286;69236;-88
2023/08/24 01:45:29;;;;;;;8.50;6.10;;;;;;;28.50;39.93;100465.47;104458;1285;69062;-88
2023/08/24 01:47:54;;;;;;;7.00;5.90;;;;;;;28.50;39.80;100461.45;104106;1286;69195;-88
2023/08/24 01:50:20;;;;;;;7.00;5.80;;;;;;;28.49;40.00;100464.55;104528;1285;69132;-88
2023/08/24 01:52:45;;;;;;;7.70;5.90;;;;;;;28.50;39.98;100474.01;104467;1289;69262;-88
2023/08/24 01:55:11;;;;;;;7.40;5.70;;;;;;;28.50;39.94;100473.29;104570;1285;69294;-88
2023/08/24 01:57:37;;;;;;;6.70;6.10;;;;;;;28.50;39.91;100479.52;104341;1292;69256;-87
2023/08/24 02:00:12;;;;;;;6.40;5.80;;;;;;;28.49;39.96;100476.31;104206;1285;73593;-92
2023/08/24 02:02:38;;;;;;;8.40;5.80;;;;;;;28.48;39.96;100475.14;104324;1288;69708;-88
2023/08/24 02:05:03;;;;;;;7.70;5.80;;;;;;;28.49;39.97;100475.91;104502;1285;69260;-88
2023/08/24 02:07:29;;;;;;;6.70;5.90;;;;;;;28.48;39.92;100469.73;104560;1290;69250;-88
2023/08/24 02:09:55;;;;;;;8.90;6.40;;;;;;;28.47;40.04;100463.84;104358;1285;69228;-88
2023/08/24 02:12:20;;;;;;;7.10;6.40;;;;;;;28.47;39.96;100460.27;104317;1292;67446;-88
2023/08/24 02:14:46;;;;;;;6.80;6.10;;;;;;;28.47;40.07;100462.08;104170;1288;69318;-87
2023/08/24 02:17:11;;;;;;;8.10;6.50;;;;;;;28.47;40.06;100463.79;104436;1285;69269;-87
2023/08/24 02:19:37;;;;;;;7.90;6.30;;;;;;;28.47;40.29;100466.33;104351;1291;69275;-88
2023/08/24 02:22:02;;;;;;;7.20;6.20;;;;;;;28.46;40.15;100465.00;104213;1292;69336;-87
2023/08/24 02:24:28;;;;;;;8.30;6.70;;;;;;;28.46;40.16;100466.98;104190;1285;67956;-87
2023/08/24 02:29:38;;;;;;;7.80;6.00;;;;;;;28.45;40.15;100466.02;104109;1288;67082;-88
2023/08/24 02:32:04;;;;;;;7.90;5.80;;;;;;;28.45;40.18;100465.00;104274;1288;73988;-88
2023/08/24 02:34:29;;;;;;;7.10;6.30;;;;;;;28.45;40.28;100466.55;104145;1288;69258;-88
2023/08/24 02:36:56;;;;;;;6.40;5.80;;;;;;;28.45;40.08;100468.67;103933;1287;69276;-88
2023/08/24 02:39:21;;;;;;;6.70;6.00;;;;;;;28.44;40.10;100470.35;104156;1287;69254;-88
2023/08/24 02:41:47;;;;;;;6.90;6.10;;;;;;;28.44;40.20;100473.46;104047;1292;67261;-87
2023/08/24 02:44:12;;;;;;;6.60;5.80;;;;;;;28.44;40.27;100479.11;104411;1288;69189;-88
2023/08/24 02:46:38;;;;;;;8.10;6.30;;;;;;;28.44;40.16;100481.55;104332;1289;69164;-88
2023/08/24 02:49:03;;;;;;;7.70;6.50;;;;;;;28.44;40.20;100484.85;105252;1288;69152;-88
2023/08/24 02:51:31;;;;;;;6.30;5.70;;;;;;;28.44;40.31;100487.95;104463;1288;69193;-88
2023/08/24 02:54:05;;;;;;;8.60;6.10;;;;;;;28.44;40.27;100489.78;104186;1288;69207;-93
2023/08/24 02:56:30;;;;;;;9.60;6.40;;;;;;;28.43;40.18;100493.58;103988;1288;69348;-87
2023/08/24 02:58:56;;;;;;;8.10;6.10;;;;;;;28.43;40.34;100494.40;104136;1288;69259;-88
2023/08/24 03:01:21;;;;;;;9.90;6.40;;;;;;;28.44;40.29;100496.61;105241;1287;69302;-88
2023/08/24 03:03:47;;;;;;;10.10;6.80;;;;;;;28.43;40.29;100495.42;105382;1292;67311;-88
2023/08/24 03:06:12;;;;;;;7.30;6.00;;;;;;;28.43;40.37;100499.94;104456;1287;69379;-89
2023/08/24 03:08:38;;;;;;;7.20;6.30;;;;;;;28.44;40.37;100499.04;104199;1289;69280;-88
2023/08/24 03:11:03;;;;;;;9.10;6.50;;;;;;;28.43;40.37;100501.50;104184;1288;69265;-88
2023/08/24 03:13:29;;;;;;;9.30;7.00;;;;;;;28.42;40.39;100500.90;104241;1288;69228;-88
2023/08/24 03:15:56;;;;;;;13.00;6.90;;;;;;;28.41;40.34;100502.60;104158;1290;69251;-89
2023/08/24 03:18:21;;;;;;;11.00;6.90;;;;;;;28.38;40.45;100510.60;104351;1288;69193;-89
2023/08/24 03:20:56;;;;;;;8.40;6.20;;;;;;;28.35;40.45;100510.44;104158;1288;69249;-93
2023/08/24 03:23:22;;;;;;;19.90;7.70;;;;;;;28.31;40.48;100516.91;103985;1288;69344;-88
2023/08/24 03:25:48;;;;;;;31.70;8.40;;;;;;;28.28;40.54;100520.05;104374;1288;69699;-88
2023/08/24 03:28:13;;;;;;;24.60;7.80;;;;;;;28.25;40.67;100522.84;104164;1289;67314;-89
2023/08/24 03:30:46;;;;;;;25.10;7.30;;;;;;;28.21;40.60;100522.45;104210;1292;69253;-88
2023/08/24 03:33:11;;;;;;;12.50;7.50;;;;;;;28.15;40.70;100527.20;104411;1288;69139;-89
2023/08/24 03:35:37;;;;;;;9.80;6.90;;;;;;;28.12;40.77;100532.95;104229;1292;69218;-88
2023/08/24 03:38:03;;;;;;;13.70;7.10;;;;;;;28.08;40.99;100533.14;104513;1288;69212;-89
2023/08/24 03:40:29;;;;;;;12.40;7.40;;;;;;;28.04;41.04;100531.52;104275;1287;298754;-89
2023/08/24 03:42:55;;;;;;;13.10;7.40;;;;;;;28.01;41.09;100533.18;104172;1288;70639;-89
2023/08/24 03:45:21;;;;;;;8.20;6.70;;;;;;;27.99;41.11;100539.92;104262;1291;69272;-88
2023/08/24 03:47:51;;;;;;;9.70;7.20;;;;;;;27.96;41.22;100542.52;104181;1288;74796;-93
2023/08/24 03:50:16;;;;;;;9.00;6.80;;;;;;;27.94;41.32;100541.17;104166;1288;69217;-88
2023/08/24 03:52:42;;;;;;;12.30;7.00;;;;;;;27.92;41.29;100534.36;104251;1294;69311;-88
2023/08/24 03:55:08;;;;;;;9.10;6.90;;;;;;;27.94;41.38;100534.17;104088;1288;69258;-88
2023/08/24 03:57:33;;;;;;;9.30;6.90;;;;;;;27.92;41.37;100532.80;104417;1288;69312;-88
2023/08/24 03:59:59;;;;;;;9.80;6.50;;;;;;;27.91;41.32;100529.38;104250;1288;69286;-88
2023/08/24 04:02:24;;;;;;;10.80;6.80;;;;;;;27.89;41.47;100523.95;103801;1290;69235;-88
2023/08/24 04:04:50;;;;;;;10.70;6.60;;;;;;;27.88;41.53;100523.11;103997;1288;69269;-88
2023/08/24 04:07:16;;;;;;;10.50;7.00;;;;;;;27.87;41.50;100522.61;104055;1288;69257;-88
2023/08/24 04:09:41;;;;;;;9.10;6.60;;;;;;;27.86;41.52;100522.45;104126;1290;69268;-88
2023/08/24 04:12:07;;;;;;;8.70;6.90;;;;;;;27.85;41.57;100523.38;104351;1288;69583;-88
2023/08/24 04:14:47;;;;;;;8.80;6.70;;;;;;;27.84;41.60;100523.27;104215;1289;69199;-92
2023/08/24 04:17:13;;;;;;;10.10;6.60;;;;;;;27.82;41.54;100520.57;104070;1287;69096;-88
2023/08/24 04:19:39;;;;;;;10.40;7.00;;;;;;;27.81;41.57;100520.83;104302;1287;69473;-88
2023/08/24 04:22:07;;;;;;;10.80;6.40;;;;;;;27.79;41.79;100522.94;104283;1287;69715;-88
2023/08/24 04:24:32;;;;;;;9.80;5.80;;;;;;;27.77;41.74;100523.62;104267;1293;69258;-87
2023/08/24 04:26:58;;;;;;;12.50;6.70;;;;;;;27.77;41.82;100524.48;104333;1292;69681;-88
2023/08/24 04:29:23;;;;;;;13.10;6.60;;;;;;;27.76;41.78;100521.14;103891;1288;69245;-88
2023/08/24 04:31:49;;;;;;;12.40;6.30;;;;;;;27.77;41.84;100518.80;104333;1288;69222;-88
2023/08/24 04:34:14;;;;;;;8.80;6.20;;;;;;;27.78;41.89;100521.16;104350;1287;69277;-88
2023/08/24 04:36:40;;;;;;;13.00;6.50;;;;;;;27.78;41.82;100520.28;104396;1287;69226;-88
2023/08/24 04:39:05;;;;;;;11.40;6.60;;;;;;;27.78;41.88;100517.06;104587;1287;69198;-88
2023/08/24 04:41:40;;;;;;;13.30;6.80;;;;;;;27.79;41.77;100517.41;104033;1288;69352;-92
2023/08/24 04:44:07;;;;;;;10.50;6.40;;;;;;;27.78;41.84;100519.03;104025;1288;69073;-88
2023/08/24 04:46:33;;;;;;;12.80;6.40;;;;;;;27.78;41.87;100524.16;104217;1288;69212;-88
2023/08/24 04:48:59;;;;;;;11.30;6.60;;;;;;;27.78;41.89;100523.44;104206;1292;69359;-87
2023/08/24 04:51:24;;;;;;;13.00;6.30;;;;;;;27.78;41.87;100526.80;104011;1291;69183;-88
2023/08/24 04:53:50;;;;;;;12.30;6.40;;;;;;;27.78;41.95;100522.82;104302;1288;67358;-88
2023/08/24 04:56:18;;;;;;;7.40;6.50;;;;;;;27.78;41.93;100523.54;104173;1288;69236;-88
2023/08/24 04:58:56;;;;;;;11.30;6.20;;;;;;;27.78;41.92;100520.55;104345;1293;69206;-88
2023/08/24 05:01:24;;;;;;;13.30;6.80;;;;;;;27.78;41.96;100523.23;104178;1291;68319;-88
2023/08/24 05:03:52;;;;;;;13.70;7.00;;;;;;;27.77;41.93;100525.73;104116;1289;74652;-88
2023/08/24 05:06:18;;;;;;;7.50;6.60;;;;;;;27.76;42.06;100530.24;104538;1288;69126;-87
2023/08/24 05:08:43;;;;;;;9.70;6.00;;;;;;;27.77;41.95;100530.14;104503;1288;69237;-88
2023/08/24 05:14:09;;;;;;;9.70;5.80;;;;;;;27.78;42.03;100535.79;104046;1287;554154;-88
2023/08/24 05:16:34;;;;;;;23.70;6.10;;;;;;;27.77;42.06;100535.90;104197;1285;69196;-88
2023/08/24 05:19:01;;;;;;;35.50;7.20;;;;;;;27.80;41.98;100536.63;104278;1287;68974;-88
2023/08/24 05:21:27;;;;;;;20.50;6.60;;;;;;;27.79;41.98;100538.98;104320;1287;69233;-88
2023/08/24 05:23:52;;;;;;;22.70;6.90;;;;;;;27.79;42.05;100538.30;104100;1286;69336;-88
2023/08/24 05:26:22;;;;;;;14.90;5.90;;;;;;;27.80;42.08;100544.64;104428;1290;69253;-89
2023/08/24 05:28:48;;;;;;;;;;;;;;;27.80;42.15;100546.12;104302;1287;69123;-88
2023/08/24 05:31:13;;;;;;;12.40;5.90;;;;;;;27.79;42.17;100546.67;104345;1288;69250;-88
2023/08/24 05:33:39;;;;;;;12.30;6.30;;;;;;;27.81;42.14;100545.28;104373;1286;69748;-88
2023/08/24 05:36:04;;;;;;;13.50;5.90;;;;;;;27.82;42.16;100546.80;104180;1286;69305;-88
2023/08/24 05:38:30;;;;;;;8.60;5.80;;;;;;;27.82;42.17;100543.46;104280;1288;69318;-88
2023/08/24 05:40:55;;;;;;;12.60;5.70;;;;;;;27.84;42.08;100549.59;104248;1285;69454;-87
2023/08/24 05:43:21;;;;;;;13.10;6.40;;;;;;;27.84;42.13;100547.35;104371;1286;69289;-86
2023/08/24 05:45:47;;;;;;;20.90;6.90;;;;;;;27.86;41.98;100546.54;104226;1287;70487;-86
2023/08/24 05:48:13;;;;;;;17.90;6.70;;;;;;;27.87;42.17;100546.50;104195;1288;69736;-87
2023/08/24 05:50:45;;;;;;;16.60;6.00;;;;;;;27.88;42.18;100548.44;104324;1291;69258;-87
2023/08/24 05:53:18;;;;;;;10.10;5.70;;;;;;;27.89;42.13;100550.41;104232;1291;69285;-92
2023/08/24 05:55:44;;;;;;;12.80;5.90;;;;;;;27.90;42.12;100549.94;104149;1287;69224;-87
2023/08/24 05:58:09;;;;;;;10.10;6.20;;;;;;;27.92;42.08;100558.65;104348;1288;69190;-86
2023/08/24 06:00:35;;;;;;;9.80;5.60;;;;;;;27.94;42.14;100557.64;104267;1288;69366;-86
2023/08/24 06:03:00;;;;;;;12.20;5.30;;;;;;;27.93;42.07;100556.46;104300;1287;69291;-87
2023/08/24 06:05:26;;;;;;;13.70;5.40;;;;;;;27.94;41.96;100558.36;104292;1288;69291;-86
2023/08/24 06:07:52;;;;;;;9.70;5.80;;;;;;;27.94;42.02;100557.80;104184;1287;70738;-86
2023/08/24 06:10:18;;;;;;;12.70;5.60;;;;;;;27.94;42.06;100551.30;104905;1288;69153;-86
2023/08/24 06:12:44;;;;;;;12.00;5.60;;;;;;;27.95;42.07;100552.41;104328;1288;69365;-86
2023/08/24 06:15:12;;;;;;;10.20;5.50;;;;;;;27.95;42.05;100550.29;104233;1290;69189;-87
2023/08/24 06:17:38;;;;;;;10.50;5.50;;;;;;;27.96;42.00;100553.08;104379;1285;69262;-87
2023/08/24 06:22:47;;;;;;;11.50;5.70;;;;;;;27.96;41.96;100561.02;104170;1287;69155;-87
2023/08/24 06:25:12;;;;;;;7.90;5.40;;;;;;;27.96;42.03;100563.98;104273;1291;69372;-87
2023/08/24 06:27:38;;;;;;;9.70;5.60;;;;;;;27.96;42.08;100564.59;104211;1288;69164;-87
2023/08/24 06:30:04;;;;;;;9.10;5.10;;;;;;;27.96;42.12;100569.11;104289;1287;69274;-87
2023/08/24 06:32:30;;;;;;;7.90;5.20;;;;;;;27.96;42.18;100570.96;104374;1290;69271;-87
2023/08/24 06:34:56;;;;;;;9.80;5.50;;;;;;;27.95;42.23;100570.88;104092;1288;69207;-87
2023/08/24 06:37:21;;;;;;;9.00;5.40;;;;;;;27.95;42.26;100573.16;104104;1287;69396;-87
2023/08/24 06:39:47;;;;;;;16.10;5.10;;;;;;;27.96;42.34;100571.98;104404;1287;69279;-87
2023/08/24 06:42:12;;;;;;;7.50;5.60;;;;;;;27.95;42.36;100571.18;104371;1287;69102;-87
2023/08/24 06:44:38;;;;;;;9.80;5.10;;;;;;;27.95;42.55;100575.44;104835;1287;69311;-87
2023/08/24 06:47:12;;;;;;;9.60;4.90;;;;;;;27.95;42.39;100577.14;104391;1288;69370;-92
2023/08/24 06:49:37;;;;;;;8.80;5.00;;;;;;;27.94;42.42;100580.05;104126;1293;69155;-87
2023/08/24 06:52:03;;;;;;;12.00;6.60;;;;;;;27.95;42.51;100578.85;104348;1288;69228;-87
2023/08/24 06:54:29;;;;;;;10.00;7.10;;;;;;;27.96;42.63;100576.39;104323;1288;69830;-87
2023/08/24 06:56:54;;;;;;;14.10;6.80;;;;;;;27.97;42.67;100570.97;104263;1292;67675;-87
2023/08/24 06:59:20;;;;;;;9.70;5.50;;;;;;;28.00;42.63;100570.39;104337;1287;69348;-86
2023/08/24 07:01:47;;;;;;;9.50;5.90;;;;;;;28.02;42.64;100565.73;104050;1287;73515;-87
2023/08/24 07:04:12;;;;;;;9.80;5.10;;;;;;;28.04;42.45;100568.35;104166;1287;69186;-87
2023/08/24 07:06:38;;;;;;;9.90;5.30;;;;;;;28.06;42.45;100559.11;104045;1287;69323;-86
2023/08/24 07:09:06;;;;;;;10.90;4.60;;;;;;;28.07;42.47;100566.79;104151;1288;69286;-86
2023/08/24 07:11:32;;;;;;;11.80;4.80;;;;;;;28.08;42.44;100563.86;104295;1292;69300;-86
2023/08/24 07:14:05;;;;;;;8.00;5.10;;;;;;;28.09;42.40;100566.95;104093;1287;69288;-92
2023/08/24 07:16:31;;;;;;;9.90;5.50;;;;;;;28.10;42.39;100570.75;104002;1288;69186;-86
2023/08/24 07:18:56;;;;;;;10.30;5.50;;;;;;;28.11;42.32;100566.48;104095;1287;69361;-87
2023/08/24 07:21:22;;;;;;;10.50;5.20;;;;;;;28.12;42.40;100565.81;104289;1288;69278;-87
2023/08/24 07:23:47;;;;;;;9.10;5.20;;;;;;;28.12;42.47;100562.63;104311;1289;70052;-87
2023/08/24 07:26:13;;;;;;;8.70;5.30;;;;;;;28.13;42.38;100562.55;104341;1288;69288;-86
2023/08/24 07:28:39;;;;;;;10.00;5.10;;;;;;;28.14;42.42;100561.39;103996;1286;69205;-86
2023/08/24 07:31:10;;;;;;;11.10;5.10;;;;;;;28.14;42.46;100564.95;104146;1288;69276;-87
2023/08/24 07:33:38;;;;;;;9.60;4.60;;;;;;;28.15;42.57;100566.98;103998;1288;69669;-86
2023/08/24 07:36:04;;;;;;;6.20;4.40;;;;;;;28.15;42.52;100566.74;104252;1285;74244;-87
2023/08/24 07:38:31;;;;;;;10.50;4.80;;;;;;;28.15;42.45;100567.61;103891;1291;69282;-86
2023/08/24 07:40:59;;;;;;;9.20;4.90;;;;;;;28.17;42.46;100565.02;104279;1287;69268;-92
2023/08/24 07:43:25;;;;;;;11.60;5.60;;;;;;;28.16;42.42;100565.26;104162;1291;69066;-87
2023/08/24 07:45:52;;;;;;;7.80;5.00;;;;;;;28.17;42.44;100568.42;104384;1285;69456;-86
2023/08/24 07:48:17;;;;;;;5.80;4.80;;;;;;;28.18;42.41;100567.99;104312;1288;69285;-86
2023/08/24 07:50:43;;;;;;;8.40;5.10;;;;;;;28.19;42.32;100566.67;104057;1287;69566;-86
2023/08/24 07:53:08;;;;;;;6.90;4.70;;;;;;;28.19;42.45;100562.68;104303;1285;69464;-86
2023/08/24 07:55:34;;;;;;;8.80;4.80;;;;;;;28.19;42.28;100565.88;104204;1285;69219;-87
2023/08/24 07:57:59;;;;;;;7.90;4.90;;;;;;;28.20;42.33;100563.48;104219;1287;69975;-86
2023/08/24 08:00:26;;;;;;;7.10;4.80;;;;;;;28.21;42.38;100562.47;104318;1287;69252;-86
2023/08/24 08:02:51;;;;;;;8.00;5.20;;;;;;;28.22;42.33;100562.71;104113;1288;69672;-86
2023/08/24 08:05:18;;;;;;;8.90;4.70;;;;;;;28.23;42.43;100564.45;104287;1287;69240;-86
2023/08/24 08:10:23;;;;;;;12.60;5.40;;;;;;;28.25;42.41;100568.68;105586;1286;74490;-86
2023/08/24 08:12:49;;;;;;;10.70;5.00;;;;;;;28.27;42.34;100562.06;105108;1286;69288;-86
2023/08/24 08:15:14;;;;;;;10.30;4.80;;;;;;;28.29;42.40;100562.52;104279;1286;69272;-86
2023/08/24 08:17:42;;;;;;;6.70;4.80;;;;;;;28.30;42.29;100562.06;104400;1291;69253;-86
2023/08/24 08:20:07;;;;;;;8.50;4.50;;;;;;;28.31;42.46;100562.34;104323;1290;69271;-86
2023/08/24 08:22:37;;;;;;;10.50;5.80;;;;;;;28.32;42.37;100562.41;104236;1291;69123;-86
2023/08/24 08:25:09;;;;;;;12.40;6.10;;;;;;;28.33;42.27;100561.93;104902;1285;561186;-85
2023/08/24 08:27:35;;;;;;;7.80;5.80;;;;;;;28.35;42.15;100556.84;104618;1288;69260;-87
2023/08/24 08:30:01;;;;;;;10.30;5.40;;;;;;;28.37;41.96;100556.28;104373;1285;69359;-85
2023/08/24 08:32:27;;;;;;;8.50;5.40;;;;;;;28.38;41.96;100553.41;104481;1286;69782;-86
2023/08/24 08:35:00;;;;;;;10.10;5.20;;;;;;;28.40;41.89;100550.79;104444;1286;69195;-86
2023/08/24 08:37:25;;;;;;;9.00;5.20;;;;;;;28.44;41.92;100550.54;104229;1291;69341;-86
2023/08/24 08:39:51;;;;;;;7.90;4.90;;;;;;;28.46;41.75;100542.20;104259;1286;69272;-86
2023/08/24 08:42:16;;;;;;;10.20;5.00;;;;;;;28.48;41.77;100543.00;104419;1286;69341;-86
2023/08/24 08:44:44;;;;;;;10.10;5.00;;;;;;;28.49;41.77;100537.58;104422;1289;70562;-86
2023/08/24 08:47:11;;;;;;;10.50;4.80;;;;;;;28.51;41.58;100534.55;104476;1289;69259;-86
2023/08/24 08:49:50;;;;;;;12.60;5.40;;;;;;;28.51;41.59;100534.77;104349;1286;69445;-92
2023/08/24 08:52:16;;;;;;;9.10;5.00;;;;;;;28.52;41.52;100531.56;104278;1289;67196;-86
2023/08/24 08:54:42;;;;;;;6.80;4.80;;;;;;;28.53;41.53;100527.80;104392;1288;69369;-86
2023/08/24 08:57:07;;;;;;;10.10;5.10;;;;;;;28.53;41.49;100527.23;104453;1287;69206;-86
2023/08/24 08:59:33;;;;;;;6.70;5.00;;;;;;;28.54;41.36;100527.61;104305;1286;70524;-86
2023/08/24 09:02:02;;;;;;;9.90;6.80;;;;;;;28.55;41.36;100529.54;104607;1285;69271;-86
2023/08/24 09:07:14;;;;;;;9.50;6.20;;;;;;;28.57;41.34;100526.20;104305;1289;73593;-86
2023/08/24 09:09:40;;;;;;;11.30;6.00;;;;;;;28.60;41.39;100531.20;104088;1288;69166;-86
2023/08/24 09:12:06;;;;;;;8.60;5.20;;;;;;;28.62;41.21;100527.30;104466;1288;69879;-86
2023/08/24 09:14:32;;;;;;;9.20;5.70;;;;;;;28.63;41.24;100529.13;104239;1288;69277;-86
2023/08/24 09:16:57;;;;;;;9.30;5.70;;;;;;;28.65;41.15;100528.70;103976;1293;69214;-86
2023/08/24 09:19:46;;;;;;;7.50;5.10;;;;;;;28.68;41.18;100525.89;104166;1291;69138;-87
2023/08/24 09:22:11;;;;;;;9.00;5.20;;;;;;;28.69;41.15;100520.16;103976;1290;69261;-86
2023/08/24 09:24:37;;;;;;;8.00;5.60;;;;;;;28.71;40.97;100517.97;104118;1290;69279;-86
2023/08/24 09:27:14;;;;;;;9.50;5.00;;;;;;;28.73;40.92;100519.56;104334;1288;69264;-86
2023/08/24 09:29:40;;;;;;;8.60;5.40;;;;;;;28.75;41.13;100518.69;104276;1288;68259;-86
2023/08/24 09:32:08;;;;;;;9.80;5.30;;;;;;;28.77;40.78;100514.32;104590;1289;69747;-85
2023/08/24 09:34:35;;;;;;;13.40;6.20;;;;;;;28.79;40.78;100515.61;104363;1287;69234;-91
2023/08/24 09:37:04;;;;;;;7.30;5.10;;;;;;;28.80;40.83;100513.45;104035;1294;69087;-86
2023/08/24 09:39:29;;;;;;;11.10;6.00;;;;;;;28.81;40.85;100516.69;104275;1288;69283;-85
2023/08/24 09:41:55;;;;;;;8.00;5.70;;;;;;;28.83;40.62;100513.95;104296;1288;70423;-86
2023/08/24 09:44:20;;;;;;;11.20;6.00;;;;;;;28.83;40.45;100513.38;104263;1288;69278;-86
2023/08/24 09:46:46;;;;;;;10.90;5.60;;;;;;;28.82;40.45;100507.54;104200;1288;69231;-87
2023/08/24 09:49:12;;;;;;;8.10;5.80;;;;;;;28.84;40.26;100509.82;104165;1288;71862;-86
2023/08/24 09:51:39;;;;;;;8.00;5.70;;;;;;;28.84;40.30;100509.39;104236;1288;69078;-86
2023/08/24 09:54:08;;;;;;;8.00;5.70;;;;;;;28.85;40.31;100507.20;104467;1288;82147;-86
2023/08/24 09:56:36;;;;;;;7.40;6.20;;;;;;;28.87;40.23;100505.42;104086;1290;69274;-84
2023/08/24 09:59:06;;;;;;;13.70;6.30;;;;;;;28.88;40.00;100504.39;103987;1288;69149;-84
2023/08/24 10:01:31;;;;;;;8.10;6.40;;;;;;;28.90;40.10;100496.75;104201;1287;69075;-86
2023/08/24 10:03:57;;;;;;;8.40;6.10;;;;;;;28.93;39.87;100499.30;104113;1289;69241;-84
2023/08/24 10:06:24;;;;;;;9.50;6.00;;;;;;;28.97;39.86;100493.75;104190;1291;68753;-85
2023/08/24 10:08:53;;;;;;;9.30;6.30;;;;;;;28.99;39.79;100491.68;104145;1292;70095;-85
2023/08/24 10:11:22;;;;;;;12.70;6.10;;;;;;;29.01;39.79;100485.59;104467;1290;68360;-85
2023/08/24 10:13:59;;;;;;;11.80;5.70;;;;;;;29.02;39.86;100476.73;104549;1288;68969;-85
2023/08/24 10:16:26;;;;;;;10.30;5.50;;;;;;;29.05;39.55;100473.59;104842;1289;69101;-91
2023/08/24 10:18:52;;;;;;;10.20;6.00;;;;;;;29.06;39.52;100466.14;104574;1287;73557;-85
2023/08/24 10:21:17;;;;;;;10.60;7.00;;;;;;;29.09;39.72;100468.58;104859;1289;69296;-85
2023/08/24 10:23:43;;;;;;;12.70;7.20;;;;;;;29.11;39.73;100465.47;104224;1289;69203;-84
2023/08/24 10:26:09;;;;;;;7.90;6.70;;;;;;;29.13;39.69;100467.59;104432;1287;68338;-85
2023/08/24 10:28:34;;;;;;;9.30;7.00;;;;;;;29.14;39.66;100462.54;104164;1288;69187;-85
2023/08/24 10:31:00;;;;;;;10.70;7.50;;;;;;;29.14;39.70;100454.43;104183;1291;69108;-84
2023/08/24 10:33:26;;;;;;;11.20;6.90;;;;;;;29.17;39.42;100450.41;104294;1288;69260;-85
2023/08/24 10:35:52;;;;;;;12.80;7.10;;;;;;;29.18;39.36;100449.64;104393;1291;69264;-85
2023/08/24 10:38:29;;;;;;;10.20;6.50;;;;;;;29.19;39.38;100442.62;104251;1289;69253;-85
2023/08/24 10:41:05;;;;;;;8.70;6.20;;;;;;;29.19;39.43;100440.38;104249;1291;74175;-85
2023/08/24 10:43:36;;;;;;;6.70;5.70;;;;;;;29.19;39.44;100434.95;104204;1287;69244;-85
2023/08/24 10:46:03;;;;;;;9.00;5.70;;;;;;;29.18;39.32;100432.89;103838;1292;69188;-85
2023/08/24 10:48:29;;;;;;;9.00;6.00;;;;;;;29.17;39.13;100430.23;103957;1289;69149;-85
2023/08/24 10:51:13;;;;;;;14.20;6.30;;;;;;;29.17;39.19;100424.08;104264;1291;69145;-85
2023/08/24 10:53:43;;;;;;;9.30;5.60;;;;;;;29.19;39.54;100425.11;104131;1286;73793;-85
2023/08/24 10:56:16;;;;;;;9.70;6.50;;;;;;;29.19;39.39;100419.44;104061;1286;69091;-85
2023/08/24 10:58:44;;;;;;;9.30;6.60;;;;;;;29.19;39.11;100416.33;103974;1292;69216;-85
2023/08/24 11:01:19;;;;;;;7.60;5.80;;;;;;;29.20;39.20;100416.09;104115;1288;69115;-90
2023/08/24 11:03:54;;;;;;;13.60;6.40;;;;;;;29.20;39.28;100409.02;104059;1288;69248;-85
2023/08/24 11:06:21;;;;;;;9.70;6.10;;;;;;;29.21;39.21;100405.11;104104;1290;73501;-85
2023/08/24 11:08:47;;;;;;;7.00;6.30;;;;;;;29.22;39.08;100403.44;104295;1291;69217;-85
2023/08/24 11:11:24;;;;;;;7.20;6.10;;;;;;;29.23;38.99;100397.98;104187;1292;69284;-86
2023/08/24 11:14:18;;;;;;;8.40;6.40;;;;;;;29.23;39.13;100401.58;104463;1291;69193;-85
2023/08/24 11:16:45;;;;;;;8.40;6.80;;;;;;;29.23;38.96;100400.73;105312;1286;69143;-86
2023/08/24 11:19:15;;;;;;;8.30;6.80;;;;;;;29.25;39.06;100398.64;105733;1288;73605;-91
2023/08/24 11:21:44;;;;;;;8.60;6.30;;;;;;;29.27;39.01;100391.34;104335;1291;69107;-86
2023/08/24 11:24:10;;;;;;;10.90;6.40;;;;;;;29.28;39.07;100385.98;104300;1288;69269;-86
2023/08/24 11:26:42;;;;;;;7.90;6.90;;;;;;;29.27;39.30;100380.55;104098;1290;69234;-86
2023/08/24 11:29:07;;;;;;;8.50;6.80;;;;;;;29.28;39.35;100375.88;104329;1288;69164;-85